Airfield :
LOGIN :

Register | Disclaimer

   EN    FR    IT 

 










Legend :    VFR   Marginal VFR   IFR   Intensive IFR   Very Intensive IFR
Visi :
Ceiling :
>= 8 km
>= 3000ft
5 to 8 km
1000 to 3000 ft
1500m to 5 km
500 to 1000 ft
800 to 1500m
200 to 500 ft
< 800m
< 200 ft
Symbols :   Thunderstorms  Fog  Heavy snow  Heavy precipitations  Wind > 20 kt
SIGMETs :     Misc.  Thunderstorms  Icing  Turbulence  Mountain Waves  Volcanic Ashes






- Airport Elevation : 821 ft
- IATA code : LYS


LFLL - Lyon St Exupéry / Satolas

CURRENT METAR :
  • 011300Z 36007KT 320V050 9999 BKN040 SCT093 21/12 Q1013 NOSIG

EXPIRED METARs :
  • 011230Z 33009KT 9999 BKN038 SCT093 21/13 Q1013 NOSIG
  • 011200Z 35005KT 260V060 9999 BKN036 SCT093 21/13 Q1013 NOSIG
  • 011130Z 30007KT 270V330 9999 BKN032 BKN093 19/14 Q1013 NOSIG
  • 011100Z 31004KT 250V010 9999 BKN032 SCT090 19/14 Q1013 NOSIG

TAF TAF LFLL
Valid from the 01 at 12:00 until the 02 at 18:00 UTC


011100Z 0112/0218 36008KT 9999 BKN030
BECMG 0118/0121 VRB03KT
PROB40
TEMPO 0112/0122 SHRA SCT040TCU
PROB30
TEMPO 0112/0118 VRB15G25KT 3000 -TSRA SCT030CB
PROB30
TEMPO 0201/0207 0800 BCFG SCT006
BECMG 0209/0212 SCT050
PROB40
TEMPO 0212/0218 -SHRA



MET'MAP, your aeronautical weather chart ! - Copyright ORBIFLY December 2007 - Disclaimer

ORBIFLY MET'MAP TEAM :

Programming & Development : Alexandra Zaïnal
Concept & original design : Baudouin d'Aumeries
Assistance for programming : Marc-Olivier Méhu
Technical & hardware support : Manuel Goepfert

Contact : metmap@orbifly.com




SOURCES & CREDITS :

   NOAA